sensor_id;sensor_type;location;lat;lon;timestamp;pressure;altitude;pressure_sealevel;temperature;humidity
79705;BME280;69940;53.120;8.764;2023-06-14T00:01:46;101841.00;;;17.81;56.72
79705;BME280;69940;53.120;8.764;2023-06-14T00:04:13;101842.00;;;17.79;56.78
79705;BME280;69940;53.120;8.764;2023-06-14T00:06:43;101843.00;;;17.77;56.95
79705;BME280;69940;53.120;8.764;2023-06-14T00:09:13;101844.00;;;17.74;57.21
79705;BME280;69940;53.120;8.764;2023-06-14T00:11:42;101846.00;;;17.70;57.41
79705;BME280;69940;53.120;8.764;2023-06-14T00:14:12;101847.00;;;17.67;57.58
79705;BME280;69940;53.120;8.764;2023-06-14T00:16:42;101847.00;;;17.65;57.53
79705;BME280;69940;53.120;8.764;2023-06-14T00:19:12;101847.00;;;17.63;57.56
79705;BME280;69940;53.120;8.764;2023-06-14T00:21:43;101848.00;;;17.62;57.75
79705;BME280;69940;53.120;8.764;2023-06-14T00:24:12;101849.00;;;17.61;57.77
79705;BME280;69940;53.120;8.764;2023-06-14T00:26:42;101850.00;;;17.58;58.07
79705;BME280;69940;53.120;8.764;2023-06-14T00:29:12;101851.00;;;17.55;58.16
79705;BME280;69940;53.120;8.764;2023-06-14T00:31:42;101854.00;;;17.51;58.39
79705;BME280;69940;53.120;8.764;2023-06-14T00:34:12;101856.00;;;17.47;58.46
79705;BME280;69940;53.120;8.764;2023-06-14T00:36:42;101858.00;;;17.44;58.63
79705;BME280;69940;53.120;8.764;2023-06-14T00:39:12;101859.00;;;17.40;58.81
79705;BME280;69940;53.120;8.764;2023-06-14T00:41:42;101861.00;;;17.36;59.02
79705;BME280;69940;53.120;8.764;2023-06-14T00:44:16;101862.00;;;17.34;59.10
79705;BME280;69940;53.120;8.764;2023-06-14T00:46:42;101864.00;;;17.31;59.25
79705;BME280;69940;53.120;8.764;2023-06-14T00:49:14;101865.00;;;17.29;59.44
79705;BME280;69940;53.120;8.764;2023-06-14T00:51:42;101867.00;;;17.27;59.44
79705;BME280;69940;53.120;8.764;2023-06-14T00:54:12;101868.00;;;17.25;59.69
79705;BME280;69940;53.120;8.764;2023-06-14T00:56:43;101869.00;;;17.22;59.96
79705;BME280;69940;53.120;8.764;2023-06-14T00:59:12;101870.00;;;17.18;60.14
79705;BME280;69940;53.120;8.764;2023-06-14T01:01:42;101872.00;;;17.15;60.16
79705;BME280;69940;53.120;8.764;2023-06-14T01:04:12;101874.00;;;17.13;60.22
79705;BME280;69940;53.120;8.764;2023-06-14T01:07:02;101875.00;;;17.09;60.43
79705;BME280;69940;53.120;8.764;2023-06-14T01:09:37;101876.00;;;17.05;60.67
79705;BME280;69940;53.120;8.764;2023-06-14T01:12:07;101878.00;;;17.01;60.80
79705;BME280;69940;53.120;8.764;2023-06-14T01:14:14;101879.00;;;16.97;60.96
79705;BME280;69940;53.120;8.764;2023-06-14T01:16:43;101880.00;;;16.93;61.02
79705;BME280;69940;53.120;8.764;2023-06-14T01:19:15;101880.00;;;16.90;61.19
79705;BME280;69940;53.120;8.764;2023-06-14T01:21:42;101881.00;;;16.87;61.35
79705;BME280;69940;53.120;8.764;2023-06-14T01:24:12;101881.00;;;16.84;61.45
79705;BME280;69940;53.120;8.764;2023-06-14T01:26:47;101883.00;;;16.82;61.52
79705;BME280;69940;53.120;8.764;2023-06-14T01:29:13;101883.00;;;16.79;61.58
79705;BME280;69940;53.120;8.764;2023-06-14T01:31:42;101885.00;;;16.78;61.75
79705;BME280;69940;53.120;8.764;2023-06-14T01:34:12;101885.00;;;16.76;61.70
79705;BME280;69940;53.120;8.764;2023-06-14T01:36:43;101886.00;;;16.74;61.90
79705;BME280;69940;53.120;8.764;2023-06-14T01:39:14;101887.00;;;16.72;61.85
79705;BME280;69940;53.120;8.764;2023-06-14T01:41:43;101888.00;;;16.71;62.24
79705;BME280;69940;53.120;8.764;2023-06-14T01:44:12;101889.00;;;16.69;62.20
79705;BME280;69940;53.120;8.764;2023-06-14T01:46:43;101890.00;;;16.66;62.30
79705;BME280;69940;53.120;8.764;2023-06-14T01:49:12;101890.00;;;16.64;62.54
79705;BME280;69940;53.120;8.764;2023-06-14T01:51:42;101891.00;;;16.61;62.53
79705;BME280;69940;53.120;8.764;2023-06-14T01:54:12;101891.00;;;16.60;62.81
79705;BME280;69940;53.120;8.764;2023-06-14T01:56:42;101892.00;;;16.57;62.73
79705;BME280;69940;53.120;8.764;2023-06-14T01:59:12;101893.00;;;16.54;62.95
79705;BME280;69940;53.120;8.764;2023-06-14T02:01:42;101894.00;;;16.52;63.12
79705;BME280;69940;53.120;8.764;2023-06-14T02:04:12;101895.00;;;16.48;63.30
79705;BME280;69940;53.120;8.764;2023-06-14T02:06:42;101895.00;;;16.45;63.42
79705;BME280;69940;53.120;8.764;2023-06-14T02:09:12;101895.00;;;16.42;63.45
79705;BME280;69940;53.120;8.764;2023-06-14T02:11:42;101894.00;;;16.39;63.61
79705;BME280;69940;53.120;8.764;2023-06-14T02:14:12;101893.00;;;16.36;63.59
79705;BME280;69940;53.120;8.764;2023-06-14T02:16:49;101894.00;;;16.33;63.78
79705;BME280;69940;53.120;8.764;2023-06-14T02:19:12;101895.00;;;16.31;63.81
79705;BME280;69940;53.120;8.764;2023-06-14T02:21:42;101896.00;;;16.30;63.83
79705;BME280;69940;53.120;8.764;2023-06-14T02:24:12;101897.00;;;16.28;64.08
79705;BME280;69940;53.120;8.764;2023-06-14T02:26:42;101898.00;;;16.26;64.13
79705;BME280;69940;53.120;8.764;2023-06-14T02:29:16;101898.00;;;16.24;64.32
79705;BME280;69940;53.120;8.764;2023-06-14T02:31:42;101901.00;;;16.22;64.27
79705;BME280;69940;53.120;8.764;2023-06-14T02:34:12;101902.00;;;16.20;64.42
79705;BME280;69940;53.120;8.764;2023-06-14T02:36:42;101902.00;;;16.18;64.46
79705;BME280;69940;53.120;8.764;2023-06-14T02:39:12;101902.00;;;16.16;64.61
79705;BME280;69940;53.120;8.764;2023-06-14T02:41:42;101904.00;;;16.14;64.67
79705;BME280;69940;53.120;8.764;2023-06-14T02:44:13;101905.00;;;16.11;64.86
79705;BME280;69940;53.120;8.764;2023-06-14T02:46:44;101908.00;;;16.09;64.87
79705;BME280;69940;53.120;8.764;2023-06-14T02:49:12;101909.00;;;16.07;64.90
79705;BME280;69940;53.120;8.764;2023-06-14T02:51:42;101909.00;;;16.06;64.85
79705;BME280;69940;53.120;8.764;2023-06-14T02:54:12;101911.00;;;16.04;64.87
79705;BME280;69940;53.120;8.764;2023-06-14T02:56:42;101912.00;;;16.02;64.98
79705;BME280;69940;53.120;8.764;2023-06-14T02:59:12;101914.00;;;16.00;65.10
79705;BME280;69940;53.120;8.764;2023-06-14T03:01:42;101916.00;;;15.99;65.17
79705;BME280;69940;53.120;8.764;2023-06-14T03:04:12;101919.00;;;15.97;65.32
79705;BME280;69940;53.120;8.764;2023-06-14T03:06:44;101921.00;;;15.95;65.30
79705;BME280;69940;53.120;8.764;2023-06-14T03:09:12;101922.00;;;15.93;65.44
79705;BME280;69940;53.120;8.764;2023-06-14T03:11:42;101923.00;;;15.90;65.64
79705;BME280;69940;53.120;8.764;2023-06-14T03:14:14;101923.00;;;15.87;65.66
79705;BME280;69940;53.120;8.764;2023-06-14T03:16:42;101925.00;;;15.85;65.79
79705;BME280;69940;53.120;8.764;2023-06-14T03:19:12;101927.00;;;15.83;65.91
79705;BME280;69940;53.120;8.764;2023-06-14T03:21:46;101931.00;;;15.81;65.88
79705;BME280;69940;53.120;8.764;2023-06-14T03:24:12;101934.00;;;15.78;66.14
79705;BME280;69940;53.120;8.764;2023-06-14T03:26:42;101937.00;;;15.76;66.14
79705;BME280;69940;53.120;8.764;2023-06-14T03:29:12;101939.00;;;15.74;66.08
79705;BME280;69940;53.120;8.764;2023-06-14T03:31:59;101942.00;;;15.73;66.13
79705;BME280;69940;53.120;8.764;2023-06-14T03:34:12;101945.00;;;15.72;66.19
79705;BME280;69940;53.120;8.764;2023-06-14T03:36:42;101947.00;;;15.71;66.27
79705;BME280;69940;53.120;8.764;2023-06-14T03:39:12;101950.00;;;15.71;66.36
79705;BME280;69940;53.120;8.764;2023-06-14T03:41:42;101951.00;;;15.70;66.42
79705;BME280;69940;53.120;8.764;2023-06-14T03:44:15;101952.00;;;15.69;66.51
79705;BME280;69940;53.120;8.764;2023-06-14T03:46:42;101953.00;;;15.68;66.51
79705;BME280;69940;53.120;8.764;2023-06-14T03:49:12;101954.00;;;15.68;66.62
79705;BME280;69940;53.120;8.764;2023-06-14T03:51:42;101954.00;;;15.68;66.55
79705;BME280;69940;53.120;8.764;2023-06-14T03:54:12;101954.00;;;15.69;66.53
79705;BME280;69940;53.120;8.764;2023-06-14T03:56:42;101956.00;;;15.71;66.46
79705;BME280;69940;53.120;8.764;2023-06-14T03:59:12;101958.00;;;15.72;66.52
79705;BME280;69940;53.120;8.764;2023-06-14T04:01:47;101960.00;;;15.72;66.64
79705;BME280;69940;53.120;8.764;2023-06-14T04:04:13;101962.00;;;15.72;66.64
79705;BME280;69940;53.120;8.764;2023-06-14T04:06:43;101962.00;;;15.73;66.59
79705;BME280;69940;53.120;8.764;2023-06-14T04:09:12;101964.00;;;15.74;66.63
79705;BME280;69940;53.120;8.764;2023-06-14T04:11:42;101965.00;;;15.75;66.66
79705;BME280;69940;53.120;8.764;2023-06-14T04:14:12;101968.00;;;15.75;66.76
79705;BME280;69940;53.120;8.764;2023-06-14T04:16:42;101970.00;;;15.76;66.52
79705;BME280;69940;53.120;8.764;2023-06-14T04:19:12;101972.00;;;15.77;66.63
79705;BME280;69940;53.120;8.764;2023-06-14T04:21:42;101975.00;;;15.79;66.57
79705;BME280;69940;53.120;8.764;2023-06-14T04:24:14;101977.00;;;15.80;66.56
79705;BME280;69940;53.120;8.764;2023-06-14T04:26:45;101979.00;;;15.82;66.45
79705;BME280;69940;53.120;8.764;2023-06-14T04:29:17;101981.00;;;15.84;66.40
79705;BME280;69940;53.120;8.764;2023-06-14T04:31:43;101984.00;;;15.87;66.27
79705;BME280;69940;53.120;8.764;2023-06-14T04:34:17;101988.00;;;15.90;66.29
79705;BME280;69940;53.120;8.764;2023-06-14T04:36:49;101989.00;;;15.93;66.13
79705;BME280;69940;53.120;8.764;2023-06-14T04:39:14;101991.00;;;15.95;66.03
79705;BME280;69940;53.120;8.764;2023-06-14T04:41:42;101992.00;;;15.97;66.18
79705;BME280;69940;53.120;8.764;2023-06-14T04:44:13;101993.00;;;16.00;66.02
79705;BME280;69940;53.120;8.764;2023-06-14T04:46:46;101995.00;;;16.01;66.00
79705;BME280;69940;53.120;8.764;2023-06-14T04:49:16;101996.00;;;16.03;65.97
79705;BME280;69940;53.120;8.764;2023-06-14T04:51:44;101997.00;;;16.05;66.12
79705;BME280;69940;53.120;8.764;2023-06-14T04:54:14;101999.00;;;16.06;66.04
79705;BME280;69940;53.120;8.764;2023-06-14T04:56:42;102000.00;;;16.08;66.05
79705;BME280;69940;53.120;8.764;2023-06-14T04:59:12;102000.00;;;16.11;66.04
79705;BME280;69940;53.120;8.764;2023-06-14T05:01:42;102000.00;;;16.13;65.97
79705;BME280;69940;53.120;8.764;2023-06-14T05:04:12;101999.00;;;16.16;66.12
79705;BME280;69940;53.120;8.764;2023-06-14T05:06:42;101999.00;;;16.20;66.04
79705;BME280;69940;53.120;8.764;2023-06-14T05:09:13;102000.00;;;16.23;65.96
79705;BME280;69940;53.120;8.764;2023-06-14T05:11:45;102000.00;;;16.27;65.87
79705;BME280;69940;53.120;8.764;2023-06-14T05:14:12;102002.00;;;16.30;65.86
79705;BME280;69940;53.120;8.764;2023-06-14T05:16:42;102003.00;;;16.34;65.92
79705;BME280;69940;53.120;8.764;2023-06-14T05:19:12;102004.00;;;16.38;65.94
79705;BME280;69940;53.120;8.764;2023-06-14T05:21:42;102005.00;;;16.42;66.07
79705;BME280;69940;53.120;8.764;2023-06-14T05:24:12;102004.00;;;16.45;65.94
79705;BME280;69940;53.120;8.764;2023-06-14T05:26:42;102004.00;;;16.48;65.77
79705;BME280;69940;53.120;8.764;2023-06-14T05:29:12;102003.00;;;16.50;66.06
79705;BME280;69940;53.120;8.764;2023-06-14T05:31:42;102003.00;;;16.54;66.25
79705;BME280;69940;53.120;8.764;2023-06-14T05:34:12;102004.00;;;16.56;66.23
79705;BME280;69940;53.120;8.764;2023-06-14T05:36:42;102008.00;;;16.60;66.31
79705;BME280;69940;53.120;8.764;2023-06-14T05:39:12;102009.00;;;16.63;66.37
79705;BME280;69940;53.120;8.764;2023-06-14T05:41:42;102012.00;;;16.65;66.46
79705;BME280;69940;53.120;8.764;2023-06-14T05:44:12;102013.00;;;16.68;66.73
79705;BME280;69940;53.120;8.764;2023-06-14T05:46:42;102016.00;;;16.71;66.70
79705;BME280;69940;53.120;8.764;2023-06-14T05:49:13;102017.00;;;16.76;66.35
79705;BME280;69940;53.120;8.764;2023-06-14T05:51:42;102018.00;;;16.81;66.28
79705;BME280;69940;53.120;8.764;2023-06-14T05:54:12;102019.00;;;16.87;65.83
79705;BME280;69940;53.120;8.764;2023-06-14T05:56:42;102023.00;;;16.94;65.88
79705;BME280;69940;53.120;8.764;2023-06-14T05:59:12;102026.00;;;17.01;65.58
79705;BME280;69940;53.120;8.764;2023-06-14T06:01:42;102028.00;;;17.07;65.70
79705;BME280;69940;53.120;8.764;2023-06-14T06:04:12;102030.00;;;17.14;65.20
79705;BME280;69940;53.120;8.764;2023-06-14T06:06:42;102032.00;;;17.20;64.55
79705;BME280;69940;53.120;8.764;2023-06-14T06:09:12;102034.00;;;17.27;63.63
79705;BME280;69940;53.120;8.764;2023-06-14T06:11:42;102036.00;;;17.34;63.12
79705;BME280;69940;53.120;8.764;2023-06-14T06:14:12;102037.00;;;17.40;63.04
79705;BME280;69940;53.120;8.764;2023-06-14T06:16:42;102037.00;;;17.47;62.64
79705;BME280;69940;53.120;8.764;2023-06-14T06:19:12;102037.00;;;17.54;62.58
79705;BME280;69940;53.120;8.764;2023-06-14T06:21:42;102039.00;;;17.60;61.45
79705;BME280;69940;53.120;8.764;2023-06-14T06:24:12;102042.00;;;17.65;60.94
79705;BME280;69940;53.120;8.764;2023-06-14T06:26:42;102042.00;;;17.71;60.64
79705;BME280;69940;53.120;8.764;2023-06-14T06:29:12;102042.00;;;17.76;60.70
79705;BME280;69940;53.120;8.764;2023-06-14T06:31:42;102043.00;;;17.80;60.15
79705;BME280;69940;53.120;8.764;2023-06-14T06:34:12;102043.00;;;17.85;60.06
79705;BME280;69940;53.120;8.764;2023-06-14T06:36:43;102044.00;;;17.89;59.69
79705;BME280;69940;53.120;8.764;2023-06-14T06:39:12;102044.00;;;17.94;59.89
79705;BME280;69940;53.120;8.764;2023-06-14T06:41:42;102045.00;;;17.98;59.76
79705;BME280;69940;53.120;8.764;2023-06-14T06:44:13;102045.00;;;18.03;59.42
79705;BME280;69940;53.120;8.764;2023-06-14T06:46:43;102046.00;;;18.08;59.45
79705;BME280;69940;53.120;8.764;2023-06-14T06:49:15;102047.00;;;18.13;59.16
79705;BME280;69940;53.120;8.764;2023-06-14T06:51:43;102049.00;;;18.18;59.08
79705;BME280;69940;53.120;8.764;2023-06-14T06:54:12;102052.00;;;18.23;59.26
79705;BME280;69940;53.120;8.764;2023-06-14T06:56:42;102054.00;;;18.29;58.66
79705;BME280;69940;53.120;8.764;2023-06-14T06:59:14;102056.00;;;18.34;58.36
79705;BME280;69940;53.120;8.764;2023-06-14T07:01:42;102058.00;;;18.39;58.32
79705;BME280;69940;53.120;8.764;2023-06-14T07:04:12;102059.00;;;18.44;58.08
79705;BME280;69940;53.120;8.764;2023-06-14T07:06:46;102059.00;;;18.49;58.05
79705;BME280;69940;53.120;8.764;2023-06-14T07:09:15;102059.00;;;18.54;58.14
79705;BME280;69940;53.120;8.764;2023-06-14T07:11:44;102060.00;;;18.59;57.28
79705;BME280;69940;53.120;8.764;2023-06-14T07:14:13;102061.00;;;18.64;56.82
79705;BME280;69940;53.120;8.764;2023-06-14T07:16:42;102062.00;;;18.70;56.36
79705;BME280;69940;53.120;8.764;2023-06-14T07:19:12;102062.00;;;18.74;56.00
79705;BME280;69940;53.120;8.764;2023-06-14T07:21:42;102061.00;;;18.79;55.24
79705;BME280;69940;53.120;8.764;2023-06-14T07:24:12;102062.00;;;18.83;55.44
79705;BME280;69940;53.120;8.764;2023-06-14T07:26:42;102063.00;;;18.88;55.49
79705;BME280;69940;53.120;8.764;2023-06-14T07:29:12;102063.00;;;18.93;54.16
79705;BME280;69940;53.120;8.764;2023-06-14T07:31:42;102062.00;;;18.98;53.87
79705;BME280;69940;53.120;8.764;2023-06-14T07:34:12;102062.00;;;19.02;53.89
79705;BME280;69940;53.120;8.764;2023-06-14T07:36:45;102061.00;;;19.07;53.91
79705;BME280;69940;53.120;8.764;2023-06-14T07:39:12;102061.00;;;19.11;53.82
79705;BME280;69940;53.120;8.764;2023-06-14T07:41:42;102059.00;;;19.15;53.63
79705;BME280;69940;53.120;8.764;2023-06-14T07:44:13;102058.00;;;19.19;53.52
79705;BME280;69940;53.120;8.764;2023-06-14T07:46:42;102056.00;;;19.24;53.57
79705;BME280;69940;53.120;8.764;2023-06-14T07:49:12;102057.00;;;19.28;53.47
79705;BME280;69940;53.120;8.764;2023-06-14T07:51:42;102057.00;;;19.33;53.30
79705;BME280;69940;53.120;8.764;2023-06-14T07:54:12;102058.00;;;19.38;53.32
79705;BME280;69940;53.120;8.764;2023-06-14T07:56:42;102058.00;;;19.43;53.36
79705;BME280;69940;53.120;8.764;2023-06-14T07:59:12;102057.00;;;19.48;53.59
79705;BME280;69940;53.120;8.764;2023-06-14T08:01:47;102057.00;;;19.52;53.20
79705;BME280;69940;53.120;8.764;2023-06-14T08:04:12;102059.00;;;19.57;52.53
79705;BME280;69940;53.120;8.764;2023-06-14T08:06:46;102060.00;;;19.61;52.52
79705;BME280;69940;53.120;8.764;2023-06-14T08:09:12;102060.00;;;19.64;52.13
79705;BME280;69940;53.120;8.764;2023-06-14T08:11:42;102061.00;;;19.68;51.02
79705;BME280;69940;53.120;8.764;2023-06-14T09:44:09;102049.00;;;22.41;48.39
79705;BME280;69940;53.120;8.764;2023-06-14T09:46:39;102049.00;;;22.10;48.20
79705;BME280;69940;53.120;8.764;2023-06-14T09:49:09;102048.00;;;21.87;47.93
79705;BME280;69940;53.120;8.764;2023-06-14T09:51:45;102049.00;;;21.71;47.88
79705;BME280;69940;53.120;8.764;2023-06-14T09:54:15;102049.00;;;21.60;47.46
79705;BME280;69940;53.120;8.764;2023-06-14T09:56:41;102049.00;;;21.54;47.76
79705;BME280;69940;53.120;8.764;2023-06-14T09:59:09;102048.00;;;21.50;47.51
79705;BME280;69940;53.120;8.764;2023-06-14T10:01:43;102048.00;;;21.50;47.72
79705;BME280;69940;53.120;8.764;2023-06-14T10:04:10;102049.00;;;21.50;47.25
79705;BME280;69940;53.120;8.764;2023-06-14T10:06:43;102049.00;;;21.51;47.18
79705;BME280;69940;53.120;8.764;2023-06-14T10:09:10;102047.00;;;21.52;46.77
79705;BME280;69940;53.120;8.764;2023-06-14T10:11:45;102047.00;;;21.54;46.93
79705;BME280;69940;53.120;8.764;2023-06-14T10:14:10;102045.00;;;21.57;47.03
79705;BME280;69940;53.120;8.764;2023-06-14T10:19:29;102044.00;;;21.63;47.08
79705;BME280;69940;53.120;8.764;2023-06-14T10:22:01;102044.00;;;21.65;46.57
79705;BME280;69940;53.120;8.764;2023-06-14T10:24:12;102043.00;;;21.68;46.72
79705;BME280;69940;53.120;8.764;2023-06-14T10:26:53;102041.00;;;21.72;46.01
79705;BME280;69940;53.120;8.764;2023-06-14T10:29:09;102038.00;;;21.77;46.09
79705;BME280;69940;53.120;8.764;2023-06-14T10:31:48;102036.00;;;21.83;46.20
79705;BME280;69940;53.120;8.764;2023-06-14T10:34:09;102034.00;;;21.90;46.28
79705;BME280;69940;53.120;8.764;2023-06-14T10:36:42;102032.00;;;21.98;45.54
79705;BME280;69940;53.120;8.764;2023-06-14T10:39:17;102030.00;;;22.07;45.27
79705;BME280;69940;53.120;8.764;2023-06-14T10:41:39;102028.00;;;22.14;45.42
79705;BME280;69940;53.120;8.764;2023-06-14T10:46:47;102026.00;;;22.25;45.13
79705;BME280;69940;53.120;8.764;2023-06-14T10:49:10;102025.00;;;22.29;45.36
79705;BME280;69940;53.120;8.764;2023-06-14T10:51:50;102025.00;;;22.33;45.23
79705;BME280;69940;53.120;8.764;2023-06-14T10:54:11;102024.00;;;22.38;45.05
79705;BME280;69940;53.120;8.764;2023-06-14T10:56:47;102024.00;;;22.43;44.55
79705;BME280;69940;53.120;8.764;2023-06-14T10:59:09;102022.00;;;22.49;44.10
79705;BME280;69940;53.120;8.764;2023-06-14T11:04:12;102019.00;;;22.59;43.88
79705;BME280;69940;53.120;8.764;2023-06-14T11:06:49;102017.00;;;22.65;44.17
79705;BME280;69940;53.120;8.764;2023-06-14T11:11:42;102014.00;;;22.74;43.54
79705;BME280;69940;53.120;8.764;2023-06-14T11:14:09;102012.00;;;22.76;43.59
79705;BME280;69940;53.120;8.764;2023-06-14T11:16:39;102010.00;;;22.78;43.93
79705;BME280;69940;53.120;8.764;2023-06-14T11:19:10;102009.00;;;22.77;43.75
79705;BME280;69940;53.120;8.764;2023-06-14T11:21:42;102008.00;;;22.76;43.06
79705;BME280;69940;53.120;8.764;2023-06-14T11:24:12;102006.00;;;22.75;42.78
79705;BME280;69940;53.120;8.764;2023-06-14T11:26:40;102005.00;;;22.76;42.88
79705;BME280;69940;53.120;8.764;2023-06-14T11:29:09;102003.00;;;22.81;42.62
79705;BME280;69940;53.120;8.764;2023-06-14T11:31:43;102000.00;;;22.86;42.69
79705;BME280;69940;53.120;8.764;2023-06-14T11:34:08;101998.00;;;22.87;42.62
79705;BME280;69940;53.120;8.764;2023-06-14T11:36:39;101994.00;;;22.87;42.75
79705;BME280;69940;53.120;8.764;2023-06-14T11:39:09;101992.00;;;22.86;43.08
79705;BME280;69940;53.120;8.764;2023-06-14T11:41:40;101992.00;;;22.85;43.40
79705;BME280;69940;53.120;8.764;2023-06-14T11:44:09;101991.00;;;22.85;43.34
79705;BME280;69940;53.120;8.764;2023-06-14T11:46:38;101987.00;;;22.85;42.98
79705;BME280;69940;53.120;8.764;2023-06-14T11:49:10;101983.00;;;22.88;43.04
79705;BME280;69940;53.120;8.764;2023-06-14T11:51:39;101981.00;;;22.92;42.80
79705;BME280;69940;53.120;8.764;2023-06-14T11:54:09;101980.00;;;22.97;42.51
79705;BME280;69940;53.120;8.764;2023-06-14T11:56:38;101980.00;;;23.05;42.15
79705;BME280;69940;53.120;8.764;2023-06-14T11:59:09;101979.00;;;23.15;41.38
79705;BME280;69940;53.120;8.764;2023-06-14T12:01:43;101978.00;;;23.27;41.25
79705;BME280;69940;53.120;8.764;2023-06-14T12:04:09;101978.00;;;23.38;41.20
79705;BME280;69940;53.120;8.764;2023-06-14T12:06:40;101978.00;;;23.47;40.78
79705;BME280;69940;53.120;8.764;2023-06-14T12:09:17;101976.00;;;23.54;40.87
79705;BME280;69940;53.120;8.764;2023-06-14T12:11:39;101974.00;;;23.57;41.20
79705;BME280;69940;53.120;8.764;2023-06-14T12:14:09;101973.00;;;23.57;41.66
79705;BME280;69940;53.120;8.764;2023-06-14T12:16:39;101972.00;;;23.57;41.69
79705;BME280;69940;53.120;8.764;2023-06-14T12:19:15;101969.00;;;23.56;42.08
79705;BME280;69940;53.120;8.764;2023-06-14T12:21:41;101968.00;;;23.57;41.99
79705;BME280;69940;53.120;8.764;2023-06-14T12:24:09;101967.00;;;23.56;41.69
79705;BME280;69940;53.120;8.764;2023-06-14T12:26:39;101967.00;;;23.55;41.70
79705;BME280;69940;53.120;8.764;2023-06-14T12:29:09;101968.00;;;23.52;42.12
79705;BME280;69940;53.120;8.764;2023-06-14T12:31:38;101971.00;;;23.49;42.26
79705;BME280;69940;53.120;8.764;2023-06-14T12:34:09;101971.00;;;23.47;42.10
79705;BME280;69940;53.120;8.764;2023-06-14T12:36:45;101971.00;;;23.46;42.55
79705;BME280;69940;53.120;8.764;2023-06-14T12:39:09;101970.00;;;23.48;42.28
79705;BME280;69940;53.120;8.764;2023-06-14T12:41:39;101969.00;;;23.53;41.40
79705;BME280;69940;53.120;8.764;2023-06-14T12:44:09;101966.00;;;23.60;41.24
79705;BME280;69940;53.120;8.764;2023-06-14T12:46:43;101963.00;;;23.68;40.61
79705;BME280;69940;53.120;8.764;2023-06-14T12:49:13;101962.00;;;23.75;41.13
79705;BME280;69940;53.120;8.764;2023-06-14T12:51:39;101962.00;;;23.77;41.19
79705;BME280;69940;53.120;8.764;2023-06-14T12:54:09;101962.00;;;23.76;41.22
79705;BME280;69940;53.120;8.764;2023-06-14T12:56:39;101961.00;;;23.74;41.69
79705;BME280;69940;53.120;8.764;2023-06-14T12:59:09;101960.00;;;23.73;41.65
79705;BME280;69940;53.120;8.764;2023-06-14T13:01:38;101959.00;;;23.75;41.50
79705;BME280;69940;53.120;8.764;2023-06-14T13:04:08;101957.00;;;23.80;40.11
79705;BME280;69940;53.120;8.764;2023-06-14T13:06:39;101956.00;;;23.88;39.86
79705;BME280;69940;53.120;8.764;2023-06-14T13:09:08;101955.00;;;23.98;39.58
79705;BME280;69940;53.120;8.764;2023-06-14T13:11:39;101954.00;;;24.07;39.82
79705;BME280;69940;53.120;8.764;2023-06-14T13:14:09;101952.00;;;24.15;39.91
79705;BME280;69940;53.120;8.764;2023-06-14T13:16:39;101952.00;;;24.22;39.86
79705;BME280;69940;53.120;8.764;2023-06-14T13:19:09;101951.00;;;24.30;39.61
79705;BME280;69940;53.120;8.764;2023-06-14T13:21:39;101949.00;;;24.39;39.35
79705;BME280;69940;53.120;8.764;2023-06-14T13:24:09;101947.00;;;24.49;39.06
79705;BME280;69940;53.120;8.764;2023-06-14T13:26:38;101945.00;;;24.58;39.01
79705;BME280;69940;53.120;8.764;2023-06-14T13:29:08;101942.00;;;24.67;38.96
79705;BME280;69940;53.120;8.764;2023-06-14T13:31:39;101942.00;;;24.76;38.86
79705;BME280;69940;53.120;8.764;2023-06-14T13:34:09;101942.00;;;24.82;39.06
79705;BME280;69940;53.120;8.764;2023-06-14T13:36:39;101941.00;;;24.84;39.10
79705;BME280;69940;53.120;8.764;2023-06-14T13:39:08;101942.00;;;24.81;39.60
79705;BME280;69940;53.120;8.764;2023-06-14T13:41:39;101942.00;;;24.74;39.94
79705;BME280;69940;53.120;8.764;2023-06-14T13:44:14;101944.00;;;24.63;40.55
79705;BME280;69940;53.120;8.764;2023-06-14T13:46:39;101944.00;;;24.52;40.72
79705;BME280;69940;53.120;8.764;2023-06-14T13:49:09;101945.00;;;24.42;40.97
79705;BME280;69940;53.120;8.764;2023-06-14T13:51:39;101945.00;;;24.37;40.67
79705;BME280;69940;53.120;8.764;2023-06-14T13:54:09;101944.00;;;24.36;40.59
79705;BME280;69940;53.120;8.764;2023-06-14T13:56:39;101942.00;;;24.38;40.09
79705;BME280;69940;53.120;8.764;2023-06-14T13:59:10;101940.00;;;24.38;40.28
79705;BME280;69940;53.120;8.764;2023-06-14T14:01:40;101940.00;;;24.36;39.75
79705;BME280;69940;53.120;8.764;2023-06-14T14:04:09;101941.00;;;24.33;40.03
79705;BME280;69940;53.120;8.764;2023-06-14T14:06:38;101940.00;;;24.28;40.69
79705;BME280;69940;53.120;8.764;2023-06-14T14:09:08;101941.00;;;24.22;41.01
79705;BME280;69940;53.120;8.764;2023-06-14T14:11:42;101942.00;;;24.17;41.23
79705;BME280;69940;53.120;8.764;2023-06-14T14:14:09;101942.00;;;24.11;41.31
79705;BME280;69940;53.120;8.764;2023-06-14T14:16:39;101943.00;;;24.06;41.37
79705;BME280;69940;53.120;8.764;2023-06-14T14:19:08;101942.00;;;24.02;41.66
79705;BME280;69940;53.120;8.764;2023-06-14T14:21:39;101942.00;;;23.98;41.57
79705;BME280;69940;53.120;8.764;2023-06-14T14:24:08;101941.00;;;23.93;41.60
79705;BME280;69940;53.120;8.764;2023-06-14T14:26:39;101939.00;;;23.88;41.56
79705;BME280;69940;53.120;8.764;2023-06-14T14:29:12;101939.00;;;23.83;41.68
79705;BME280;69940;53.120;8.764;2023-06-14T14:31:38;101938.00;;;23.81;41.33
79705;BME280;69940;53.120;8.764;2023-06-14T14:34:08;101936.00;;;23.86;41.15
79705;BME280;69940;53.120;8.764;2023-06-14T14:36:43;101933.00;;;23.97;40.71
79705;BME280;69940;53.120;8.764;2023-06-14T14:39:09;101930.00;;;24.09;40.23
79705;BME280;69940;53.120;8.764;2023-06-14T14:41:41;101929.00;;;24.18;39.02
79705;BME280;69940;53.120;8.764;2023-06-14T14:44:09;101926.00;;;24.25;39.18